createdAt,value
2019-04-16T00:01:57.993Z,13.74
2019-04-16T00:04:53.715Z,13.77
2019-04-16T00:08:00.288Z,13.73
2019-04-16T00:10:50.805Z,13.69
2019-04-16T00:13:29.542Z,13.60
2019-04-16T00:15:59.445Z,13.58
2019-04-16T00:18:28.519Z,13.54
2019-04-16T00:21:34.596Z,13.53
2019-04-16T00:24:21.068Z,13.50
2019-04-16T00:26:57.799Z,13.41
2019-04-16T00:29:23.830Z,13.39
2019-04-16T00:32:11.904Z,13.37
2019-04-16T00:34:44.567Z,13.35
2019-04-16T00:37:11.684Z,13.34
2019-04-16T00:39:40.757Z,13.30
2019-04-16T00:42:09.925Z,13.29
2019-04-16T00:44:39.132Z,13.24
2019-04-16T00:47:08.332Z,13.22
2019-04-16T00:49:38.067Z,13.19
2019-04-16T00:52:07.443Z,13.15
2019-04-16T00:54:36.531Z,13.10
2019-04-16T00:57:05.632Z,13.09
2019-04-16T00:59:34.822Z,13.08
2019-04-16T01:02:04.209Z,13.05
2019-04-16T01:04:33.368Z,13.03
2019-04-16T01:07:02.518Z,12.96
2019-04-16T01:09:31.632Z,12.96
2019-04-16T01:12:00.838Z,12.94
2019-04-16T01:14:29.920Z,12.91
2019-04-16T01:17:03.897Z,12.89
2019-04-16T01:19:29.915Z,12.85
2019-04-16T01:21:59.056Z,12.81
2019-04-16T01:24:28.206Z,12.80
2019-04-16T01:26:58.210Z,12.76
2019-04-16T01:29:28.241Z,12.73
2019-04-16T01:32:28.400Z,12.68
2019-04-16T01:35:19.799Z,12.65
2019-04-16T01:38:06.339Z,12.58
2019-04-16T01:40:41.697Z,12.54
2019-04-16T01:43:10.802Z,12.46
2019-04-16T01:45:40.000Z,12.43
2019-04-16T01:48:09.101Z,12.41
2019-04-16T01:50:38.232Z,12.39
2019-04-16T01:53:07.361Z,12.36
2019-04-16T01:55:36.460Z,12.33
2019-04-16T01:58:05.611Z,12.31
2019-04-16T02:00:36.498Z,12.29
2019-04-16T02:03:05.683Z,12.24
2019-04-16T02:05:34.833Z,12.21
2019-04-16T02:08:03.910Z,12.16
2019-04-16T02:10:35.515Z,12.14
2019-04-16T02:13:04.370Z,12.11
2019-04-16T02:15:33.525Z,12.06
2019-04-16T02:18:02.744Z,12.03
2019-04-16T02:20:31.837Z,12.01
2019-04-16T02:23:01.149Z,11.98
2019-04-16T02:25:30.328Z,11.97
2019-04-16T02:27:59.443Z,11.97
2019-04-16T02:30:28.653Z,11.96
2019-04-16T02:32:57.755Z,11.95
2019-04-16T02:35:26.938Z,11.95
2019-04-16T02:37:56.084Z,11.93
2019-04-16T02:40:25.161Z,11.91
2019-04-16T02:42:54.307Z,11.88
2019-04-16T02:45:24.499Z,11.88
2019-04-16T02:47:53.673Z,11.86
2019-04-16T02:50:31.908Z,11.85
2019-04-16T02:53:24.512Z,11.85
2019-04-16T02:56:04.117Z,11.81
2019-04-16T02:58:38.114Z,11.78
2019-04-16T03:01:28.778Z,11.80
2019-04-16T03:04:02.863Z,11.80
2019-04-16T03:06:32.616Z,11.75
2019-04-16T03:09:01.948Z,11.75
2019-04-16T03:11:31.091Z,11.77
2019-04-16T03:14:00.210Z,10.83
2019-04-16T03:16:46.835Z,11.81
2019-04-16T03:19:20.654Z,11.81
2019-04-16T03:21:49.835Z,11.78
2019-04-16T03:24:19.104Z,11.78
2019-04-16T03:30:17.108Z,11.78
2019-04-16T03:32:52.514Z,11.55
2019-04-16T03:35:25.356Z,11.56
2019-04-16T03:37:52.477Z,11.60
2019-04-16T03:40:24.658Z,11.64
2019-04-16T03:42:52.438Z,11.67
2019-04-16T03:45:21.565Z,11.68
2019-04-16T03:47:52.134Z,11.69
2019-04-16T03:50:21.657Z,11.69
2019-04-16T03:52:50.784Z,11.69
2019-04-16T03:55:25.010Z,11.69
2019-04-16T03:57:50.778Z,11.69
2019-04-16T04:00:19.837Z,11.68
2019-04-16T04:02:54.155Z,11.65
2019-04-16T04:05:19.840Z,11.66
2019-04-16T04:07:48.935Z,11.67
2019-04-16T04:10:29.920Z,11.67
2019-04-16T04:12:48.918Z,11.67
2019-04-16T04:15:18.032Z,11.67
2019-04-16T04:17:47.505Z,11.71
2019-04-16T04:20:18.158Z,11.71
2019-04-16T04:22:47.373Z,11.70
2019-04-16T04:25:16.858Z,11.69
2019-04-16T04:27:46.750Z,11.66
2019-04-16T04:30:18.921Z,11.65
2019-04-16T04:32:48.035Z,11.64
2019-04-16T04:35:20.602Z,11.69
2019-04-16T04:37:47.994Z,11.72
2019-04-16T04:40:17.622Z,11.72
2019-04-16T04:42:46.896Z,11.73
2019-04-16T04:45:16.038Z,11.75
2019-04-16T04:47:45.138Z,11.76
2019-04-16T04:50:14.879Z,11.77
2019-04-16T04:52:46.903Z,11.82
2019-04-16T04:55:16.040Z,11.86
2019-04-16T04:57:45.166Z,11.90
2019-04-16T05:00:14.257Z,11.94
2019-04-16T05:02:44.345Z,11.95
2019-04-16T05:05:41.679Z,11.99
2019-04-16T05:08:10.819Z,12.01
2019-04-16T05:10:43.314Z,11.90
2019-04-16T05:13:10.845Z,12.07
2019-04-16T05:15:39.984Z,12.12
2019-04-16T05:18:10.810Z,12.17
2019-04-16T05:20:39.980Z,12.22
2019-04-16T05:23:09.166Z,12.26
2019-04-16T05:25:38.264Z,12.32
2019-04-16T05:28:11.578Z,12.36
2019-04-16T05:30:38.128Z,12.43
2019-04-16T05:33:07.236Z,12.49
2019-04-16T05:35:38.588Z,12.60
2019-04-16T05:38:07.058Z,12.68
2019-04-16T05:40:36.126Z,12.80
2019-04-16T05:43:05.291Z,12.97
2019-04-16T05:45:37.048Z,13.19
2019-04-16T05:48:05.279Z,13.47
2019-04-16T05:50:34.407Z,13.79
2019-04-16T05:53:05.437Z,14.07
2019-04-16T05:55:59.470Z,14.27
2019-04-16T05:58:30.855Z,14.44
2019-04-16T06:01:22.574Z,14.57
2019-04-16T06:03:54.277Z,14.69
2019-04-16T06:06:23.616Z,14.86
2019-04-16T06:08:56.167Z,15.06
2019-04-16T06:11:29.609Z,15.31
2019-04-16T06:14:03.385Z,15.66
2019-04-16T06:16:53.351Z,16.11
2019-04-16T06:19:32.818Z,16.65
2019-04-16T06:22:29.565Z,17.26
2019-04-16T06:25:09.419Z,17.87
2019-04-16T06:27:54.417Z,18.45
2019-04-16T06:30:48.545Z,18.99
2019-04-16T06:33:21.856Z,19.56
2019-04-16T06:36:09.877Z,20.13
2019-04-16T06:38:48.772Z,20.61
2019-04-16T06:41:47.760Z,21.18
2019-04-16T06:44:18.218Z,21.70
2019-04-16T06:47:10.520Z,22.16
2019-04-16T06:49:48.233Z,22.55
2019-04-16T06:52:35.240Z,22.95
2019-04-16T06:55:13.303Z,23.34
2019-04-16T06:58:01.459Z,23.64
2019-04-16T07:00:52.626Z,24.04
2019-04-16T07:03:59.974Z,24.53
2019-04-16T07:07:07.814Z,24.99
2019-04-16T07:09:42.316Z,25.46
2019-04-16T07:12:23.254Z,25.89
2019-04-16T07:14:53.719Z,26.21
2019-04-16T07:17:23.118Z,26.45
2019-04-16T07:19:55.145Z,26.59
2019-04-16T07:22:24.598Z,26.73
2019-04-16T07:24:57.564Z,26.77
2019-04-16T07:27:37.786Z,26.80
2019-04-16T07:30:25.582Z,26.81
2019-04-16T07:33:04.461Z,26.94
2019-04-16T07:35:49.663Z,27.12
2019-04-16T07:38:40.848Z,27.27
2019-04-16T07:41:20.310Z,27.41
2019-04-16T07:44:23.603Z,27.62
2019-04-16T07:47:10.265Z,27.67
2019-04-16T07:49:45.676Z,27.95
2019-04-16T07:52:42.803Z,28.03
2019-04-16T07:55:33.935Z,28.18
2019-04-16T07:58:03.138Z,28.40
2019-04-16T08:00:32.237Z,28.63
2019-04-16T08:03:01.373Z,28.69
2019-04-16T08:05:30.451Z,28.67
2019-04-16T08:07:59.537Z,28.96
2019-04-16T08:10:29.369Z,29.21
2019-04-16T08:13:06.736Z,29.55
2019-04-16T08:15:35.920Z,29.81
2019-04-16T08:18:05.298Z,30.02
2019-04-16T08:20:38.053Z,30.02
2019-04-16T08:23:26.652Z,30.45
2019-04-16T08:26:03.524Z,30.65
2019-04-16T08:28:27.568Z,30.75
2019-04-16T08:30:56.689Z,30.89
2019-04-16T08:33:28.557Z,30.84
2019-04-16T08:35:57.753Z,30.97
2019-04-16T08:38:34.106Z,31.01
2019-04-16T08:41:01.105Z,31.06
2019-04-16T08:43:30.677Z,31.26
2019-04-16T08:46:00.248Z,31.28
2019-04-16T08:48:30.325Z,31.52
2019-04-16T08:51:00.305Z,31.80
2019-04-16T08:53:30.248Z,31.99
2019-04-16T08:55:59.632Z,32.23
2019-04-16T08:58:29.216Z,32.63
2019-04-16T09:00:58.685Z,33.26
2019-04-16T09:03:30.075Z,33.44
2019-04-16T09:05:59.547Z,33.15
2019-04-16T09:08:46.871Z,33.36
2019-04-16T09:11:23.258Z,33.48
2019-04-16T09:13:51.896Z,33.14
2019-04-16T09:16:21.277Z,33.09
2019-04-16T09:19:15.789Z,33.02
2019-04-16T09:21:45.021Z,33.15
2019-04-16T09:24:22.274Z,33.19
2019-04-16T09:27:03.912Z,33.31
2019-04-16T09:30:05.265Z,33.51
2019-04-16T09:32:51.793Z,33.61
2019-04-16T09:35:45.020Z,33.54
2019-04-16T09:38:38.848Z,33.58
2019-04-16T09:41:28.314Z,33.87
2019-04-16T09:44:00.965Z,34.10
2019-04-16T09:46:50.581Z,34.67
2019-04-16T09:49:04.913Z,34.70
2019-04-16T09:51:32.735Z,34.91
2019-04-16T09:54:02.027Z,34.81
2019-04-16T09:56:32.313Z,35.13
2019-04-16T09:59:11.049Z,35.36
2019-04-16T10:01:51.530Z,35.50
2019-04-16T10:04:21.332Z,35.38
2019-04-16T10:06:50.517Z,35.77
2019-04-16T10:09:22.333Z,36.14
2019-04-16T10:11:51.589Z,36.25
2019-04-16T10:14:20.751Z,36.64
2019-04-16T10:16:49.918Z,36.73
2019-04-16T10:19:21.267Z,36.89
2019-04-16T10:21:53.137Z,37.15
2019-04-16T10:24:49.569Z,37.62
2019-04-16T10:27:34.591Z,37.83
2019-04-16T10:30:05.909Z,37.67
2019-04-16T10:32:35.739Z,38.19
2019-04-16T10:35:06.702Z,38.42
2019-04-16T10:37:36.231Z,38.70
2019-04-16T10:40:25.211Z,39.05
2019-04-16T10:43:26.121Z,39.00
2019-04-16T10:46:10.432Z,38.96
2019-04-16T10:49:16.079Z,39.32
2019-04-16T10:52:37.538Z,39.77
2019-04-16T10:55:50.720Z,40.34
2019-04-16T10:58:57.547Z,39.97
2019-04-16T11:02:17.748Z,39.70
2019-04-16T11:05:15.384Z,39.61
2019-04-16T11:08:07.382Z,39.80
2019-04-16T11:11:03.901Z,40.43
2019-04-16T11:13:39.679Z,40.76
2019-04-16T11:16:14.676Z,40.19
2019-04-16T11:18:54.873Z,40.15
2019-04-16T11:21:28.950Z,40.31
2019-04-16T11:23:58.299Z,40.45
2019-04-16T11:26:27.754Z,39.93
2019-04-16T11:28:57.184Z,39.81
2019-04-16T11:31:29.410Z,39.70
2019-04-16T11:33:58.808Z,39.57
2019-04-16T11:36:30.898Z,38.92
2019-04-16T11:38:58.971Z,38.73
2019-04-16T11:41:28.346Z,38.83
2019-04-16T11:43:57.672Z,38.80
2019-04-16T11:46:27.113Z,38.10
2019-04-16T11:48:56.371Z,37.88
2019-04-16T11:51:25.472Z,36.50
2019-04-16T11:53:54.551Z,35.15
2019-04-16T11:56:23.873Z,33.73
2019-04-16T11:58:53.078Z,32.50
2019-04-16T12:01:50.351Z,31.33
2019-04-16T12:04:37.554Z,30.32
2019-04-16T12:07:21.424Z,29.30
2019-04-16T12:10:06.095Z,28.59
2019-04-16T12:13:04.322Z,28.19
2019-04-16T12:16:08.374Z,27.90
2019-04-16T12:19:05.628Z,27.70
2019-04-16T12:21:52.267Z,27.48
2019-04-16T12:24:46.577Z,27.26
2019-04-16T12:27:33.471Z,27.00
2019-04-16T12:30:15.702Z,26.98
2019-04-16T12:33:08.751Z,26.84
2019-04-16T12:35:41.234Z,26.66
2019-04-16T12:38:27.525Z,26.64
2019-04-16T12:41:14.185Z,26.55
2019-04-16T12:43:52.319Z,26.52
2019-04-16T12:46:46.499Z,26.44
2019-04-16T12:49:20.666Z,26.43
2019-04-16T12:51:56.957Z,26.32
2019-04-16T12:54:37.951Z,26.15
2019-04-16T12:57:29.078Z,25.92
2019-04-16T13:00:13.212Z,25.78
2019-04-16T13:02:51.638Z,25.76
2019-04-16T13:05:44.561Z,25.87
2019-04-16T13:08:44.346Z,26.04
2019-04-16T13:11:31.969Z,26.19
2019-04-16T13:14:32.965Z,26.23
2019-04-16T13:17:19.552Z,26.26
2019-04-16T13:19:57.802Z,26.04
2019-04-16T13:22:30.829Z,26.02
2019-04-16T13:25:06.546Z,26.12
2019-04-16T13:27:37.814Z,26.06
2019-04-16T13:30:08.595Z,25.98
2019-04-16T13:32:37.756Z,25.89
2019-04-16T13:35:07.163Z,25.92
2019-04-16T13:37:37.847Z,25.37
2019-04-16T13:40:11.672Z,26.12
2019-04-16T13:42:40.867Z,26.25
2019-04-16T13:45:41.317Z,26.31
2019-04-16T13:48:28.521Z,26.38
2019-04-16T13:51:01.085Z,26.28
2019-04-16T13:53:47.713Z,26.17
2019-04-16T13:56:38.805Z,26.13
2019-04-16T13:59:31.109Z,26.02
2019-04-16T14:02:37.285Z,26.04
2019-04-16T14:05:10.055Z,26.02
2019-04-16T14:07:37.396Z,26.04
2019-04-16T14:10:06.713Z,26.00
2019-04-16T14:12:42.096Z,25.95
2019-04-16T14:15:08.402Z,25.91
2019-04-16T14:17:51.940Z,25.90
2019-04-16T14:20:12.123Z,25.82
2019-04-16T14:22:39.469Z,25.82
2019-04-16T14:25:08.898Z,25.84
2019-04-16T14:27:38.210Z,25.83
2019-04-16T14:30:13.381Z,25.83
2019-04-16T14:32:42.724Z,25.87
2019-04-16T14:35:32.346Z,25.83
2019-04-16T14:37:49.155Z,25.87
2019-04-16T14:40:25.391Z,25.91
2019-04-16T14:42:57.466Z,25.91
2019-04-16T14:45:34.745Z,25.81
2019-04-16T14:48:07.909Z,25.74
2019-04-16T14:50:33.431Z,25.72
2019-04-16T14:53:02.941Z,25.62
2019-04-16T14:55:43.633Z,25.54
2019-04-16T14:58:31.864Z,25.49
2019-04-16T15:01:28.902Z,25.35
2019-04-16T15:04:29.003Z,25.28
2019-04-16T15:07:13.381Z,25.17
2019-04-16T15:10:04.453Z,25.09
2019-04-16T15:12:43.981Z,24.94
2019-04-16T15:15:32.127Z,24.94
2019-04-16T15:18:26.592Z,24.94
2019-04-16T15:21:12.543Z,24.98
2019-04-16T15:24:03.685Z,24.97
2019-04-16T15:26:58.254Z,25.04
2019-04-16T15:29:45.233Z,25.17
2019-04-16T15:32:39.454Z,25.20
2019-04-16T15:35:13.874Z,25.02
2019-04-16T15:37:59.713Z,24.82
2019-04-16T15:40:40.347Z,24.78
2019-04-16T15:43:31.822Z,24.75
2019-04-16T15:46:26.096Z,24.69
2019-04-16T15:49:08.349Z,24.64
2019-04-16T15:51:51.502Z,24.62
2019-04-16T15:54:34.589Z,24.51
2019-04-16T15:57:28.777Z,24.46
2019-04-16T16:00:17.077Z,24.39
2019-04-16T16:03:04.249Z,24.36
2019-04-16T16:05:45.938Z,24.41
2019-04-16T16:08:23.354Z,24.41
2019-04-16T16:10:56.196Z,24.37
2019-04-16T16:13:26.411Z,24.40
2019-04-16T16:15:56.791Z,24.43
2019-04-16T16:18:26.074Z,24.46
2019-04-16T16:20:55.376Z,24.39
2019-04-16T16:23:26.189Z,24.37
2019-04-16T16:25:56.209Z,24.30
2019-04-16T16:28:25.605Z,24.24
2019-04-16T16:30:55.038Z,24.24
2019-04-16T16:33:24.605Z,24.19
2019-04-16T16:35:58.653Z,24.18
2019-04-16T16:38:25.330Z,24.11
2019-04-16T16:40:54.419Z,24.06
2019-04-16T16:43:23.515Z,24.03
2019-04-16T16:46:00.247Z,23.99
2019-04-16T16:48:29.659Z,23.96
2019-04-16T16:50:59.373Z,23.91
2019-04-16T16:53:34.339Z,23.85
2019-04-16T16:56:13.563Z,23.82
2019-04-16T16:58:58.845Z,23.72
2019-04-16T17:01:59.051Z,23.71
2019-04-16T17:04:31.407Z,23.62
2019-04-16T17:07:00.916Z,23.51
2019-04-16T17:09:31.684Z,22.97
2019-04-16T17:12:00.908Z,23.52
2019-04-16T17:14:30.018Z,23.39
2019-04-16T17:17:11.830Z,23.18
2019-04-16T17:19:29.916Z,23.06
2019-04-16T17:21:58.956Z,23.00
2019-04-16T17:24:28.167Z,22.84
2019-04-16T17:26:57.200Z,22.73
2019-04-16T17:29:26.238Z,22.53
2019-04-16T17:31:55.711Z,22.38
2019-04-16T17:34:24.856Z,22.30
2019-04-16T17:36:53.908Z,22.18
2019-04-16T17:39:42.635Z,22.00
2019-04-16T17:42:11.857Z,21.92
2019-04-16T17:44:49.114Z,21.80
2019-04-16T17:47:49.206Z,21.73
2019-04-16T17:50:39.366Z,21.68
2019-04-16T17:53:19.542Z,21.57
2019-04-16T17:56:07.631Z,21.53
2019-04-16T17:58:50.265Z,21.42
2019-04-16T18:01:47.289Z,21.35
2019-04-16T18:04:38.386Z,21.25
2019-04-16T18:07:35.557Z,21.09
2019-04-16T18:10:27.126Z,20.86
2019-04-16T18:13:06.866Z,20.62
2019-04-16T18:15:45.980Z,20.45
2019-04-16T18:18:36.602Z,20.30
2019-04-16T18:21:21.784Z,20.11
2019-04-16T18:24:02.539Z,20.01
2019-04-16T18:26:42.582Z,19.95
2019-04-16T18:29:16.668Z,19.89
2019-04-16T18:32:05.015Z,19.89
2019-04-16T18:34:48.567Z,19.89
2019-04-16T18:37:36.611Z,19.80
2019-04-16T18:40:25.035Z,19.74
2019-04-16T18:43:16.103Z,19.72
2019-04-16T18:46:02.960Z,19.64
2019-04-16T18:48:33.694Z,19.55
2019-04-16T18:51:02.868Z,19.49
2019-04-16T18:53:32.487Z,19.49
2019-04-16T18:56:01.613Z,19.49
2019-04-16T18:58:30.686Z,19.49
2019-04-16T19:01:04.323Z,19.49
2019-04-16T19:03:33.442Z,19.49
2019-04-16T19:06:02.966Z,19.50
2019-04-16T19:08:41.732Z,19.51
2019-04-16T19:11:03.172Z,19.49
2019-04-16T19:13:32.289Z,19.49
2019-04-16T19:16:01.442Z,19.47
2019-04-16T19:18:30.487Z,19.43
2019-04-16T19:20:59.753Z,19.43
2019-04-16T19:23:28.903Z,19.43
2019-04-16T19:25:58.177Z,19.43
2019-04-16T19:28:27.708Z,19.43
2019-04-16T19:30:56.954Z,19.41
2019-04-16T19:33:26.040Z,19.41
2019-04-16T19:35:55.106Z,19.38
2019-04-16T19:38:24.191Z,19.32
2019-04-16T19:40:53.246Z,19.28
2019-04-16T19:43:22.355Z,19.26
2019-04-16T19:45:51.589Z,19.22
2019-04-16T19:48:34.708Z,19.15
2019-04-16T19:50:51.648Z,19.14
2019-04-16T19:53:20.830Z,19.09
2019-04-16T19:55:49.963Z,19.02
2019-04-16T19:58:19.138Z,18.94
2019-04-16T20:00:48.345Z,18.90
2019-04-16T20:03:17.477Z,18.88
2019-04-16T20:05:46.668Z,18.85
2019-04-16T20:08:15.843Z,18.81
2019-04-16T20:10:48.545Z,18.79
2019-04-16T20:13:15.902Z,18.72
2019-04-16T20:15:45.131Z,18.69
2019-04-16T20:18:14.346Z,18.66
2019-04-16T20:20:43.461Z,18.62
2019-04-16T20:23:12.623Z,18.59
2019-04-16T20:25:41.743Z,18.54
2019-04-16T20:28:15.301Z,18.51
2019-04-16T20:30:41.697Z,18.44
2019-04-16T20:33:10.816Z,18.40
2019-04-16T20:35:39.868Z,18.34
2019-04-16T20:38:08.955Z,18.30
2019-04-16T20:40:38.058Z,18.27
2019-04-16T20:43:07.219Z,18.22
2019-04-16T20:45:36.308Z,18.16
2019-04-16T20:48:05.510Z,18.12
2019-04-16T20:50:34.647Z,18.08
2019-04-16T20:53:07.346Z,18.04
2019-04-16T20:55:34.596Z,18.00
2019-04-16T20:58:03.770Z,17.96
2019-04-16T21:00:34.980Z,17.91
2019-04-16T21:03:04.061Z,17.87
2019-04-16T21:05:35.740Z,17.83
2019-04-16T21:08:04.089Z,17.81
2019-04-16T21:10:35.699Z,17.76
2019-04-16T21:13:04.062Z,17.72
2019-04-16T21:15:33.107Z,17.69
2019-04-16T21:18:02.146Z,17.68
2019-04-16T21:20:31.236Z,17.64
2019-04-16T21:23:01.537Z,17.62
2019-04-16T21:25:31.170Z,17.59
2019-04-16T21:28:17.137Z,17.58
2019-04-16T21:30:47.367Z,17.54
2019-04-16T21:33:26.165Z,17.47
2019-04-16T21:35:57.059Z,17.46
2019-04-16T21:38:48.129Z,17.46
2019-04-16T21:41:17.198Z,17.44
2019-04-16T21:43:46.245Z,17.41
2019-04-16T21:46:20.191Z,17.38
2019-04-16T21:48:46.154Z,17.38
2019-04-16T21:51:19.017Z,17.32
2019-04-16T21:53:46.070Z,17.31
2019-04-16T21:56:15.166Z,17.30
2019-04-16T21:58:46.621Z,17.28
2019-04-16T22:01:36.758Z,17.24
2019-04-16T22:04:13.213Z,17.22
2019-04-16T22:06:40.073Z,17.15
2019-04-16T22:09:09.192Z,17.12
2019-04-16T22:11:43.412Z,17.10
2019-04-16T22:14:09.077Z,17.06
2019-04-16T22:16:38.301Z,17.04
2019-04-16T22:19:07.393Z,17.02
2019-04-16T22:21:39.665Z,16.97
2019-04-16T22:24:07.500Z,16.93
2019-04-16T22:26:36.559Z,16.90
2019-04-16T22:29:06.242Z,16.87
2019-04-16T22:31:35.725Z,16.87
2019-04-16T22:34:04.827Z,16.85
2019-04-16T22:36:33.968Z,16.83
2019-04-16T22:39:08.155Z,16.80
2019-04-16T22:41:42.558Z,16.80
2019-04-16T22:44:39.693Z,16.83
2019-04-16T22:47:12.378Z,16.86
2019-04-16T22:49:41.436Z,16.90
2019-04-16T22:52:13.100Z,16.96
2019-04-16T22:54:42.392Z,17.00
2019-04-16T22:57:13.598Z,17.03
2019-04-16T22:59:42.691Z,17.07
2019-04-16T23:02:23.343Z,17.13
2019-04-16T23:04:54.800Z,17.15
2019-04-16T23:07:23.327Z,17.16
2019-04-16T23:09:52.503Z,17.17
2019-04-16T23:12:26.826Z,17.19
2019-04-16T23:14:52.691Z,17.20
2019-04-16T23:17:24.782Z,17.20
2019-04-16T23:19:54.745Z,17.22
2019-04-16T23:22:24.755Z,17.23
2019-04-16T23:24:55.428Z,17.25
2019-04-16T23:27:24.913Z,17.27
2019-04-16T23:29:54.102Z,17.31
2019-04-16T23:32:27.421Z,17.35
2019-04-16T23:34:54.326Z,17.35
2019-04-16T23:37:24.056Z,17.38
2019-04-16T23:39:53.282Z,17.40
2019-04-16T23:42:22.466Z,17.41
2019-04-16T23:45:09.406Z,17.42
2019-04-16T23:47:58.910Z,17.43
2019-04-16T23:50:56.749Z,17.39
2019-04-16T23:53:43.678Z,17.32
2019-04-16T23:56:24.556Z,17.28
2019-04-16T23:59:06.096Z,17.27
